sensor_id;sensor_type;location;lat;lon;timestamp;temperature;humidity
70734;DHT22;58320;48.804;9.252;2024-03-22T00:01:54;8.30;86.50
70734;DHT22;58320;48.804;9.252;2024-03-22T00:04:20;8.30;87.00
70734;DHT22;58320;48.804;9.252;2024-03-22T00:06:47;8.20;87.30
70734;DHT22;58320;48.804;9.252;2024-03-22T00:09:14;8.30;87.50
70734;DHT22;58320;48.804;9.252;2024-03-22T00:11:41;8.20;87.60
70734;DHT22;58320;48.804;9.252;2024-03-22T00:14:08;8.20;87.90
70734;DHT22;58320;48.804;9.252;2024-03-22T00:16:34;8.20;87.90
70734;DHT22;58320;48.804;9.252;2024-03-22T00:19:00;8.20;88.20
70734;DHT22;58320;48.804;9.252;2024-03-22T00:21:25;8.10;88.60
70734;DHT22;58320;48.804;9.252;2024-03-22T00:23:51;8.10;89.00
70734;DHT22;58320;48.804;9.252;2024-03-22T00:26:17;8.10;88.90
70734;DHT22;58320;48.804;9.252;2024-03-22T00:28:43;8.00;88.80
70734;DHT22;58320;48.804;9.252;2024-03-22T00:31:09;8.00;89.00
70734;DHT22;58320;48.804;9.252;2024-03-22T00:33:35;8.00;89.30
70734;DHT22;58320;48.804;9.252;2024-03-22T00:36:00;7.90;89.20
70734;DHT22;58320;48.804;9.252;2024-03-22T00:38:26;7.90;89.20
70734;DHT22;58320;48.804;9.252;2024-03-22T00:40:52;7.80;89.20
70734;DHT22;58320;48.804;9.252;2024-03-22T00:43:19;7.80;89.50
70734;DHT22;58320;48.804;9.252;2024-03-22T00:45:45;7.80;89.70
70734;DHT22;58320;48.804;9.252;2024-03-22T00:48:11;7.70;89.80
70734;DHT22;58320;48.804;9.252;2024-03-22T00:50:36;7.60;90.00
70734;DHT22;58320;48.804;9.252;2024-03-22T00:53:02;7.60;90.10
70734;DHT22;58320;48.804;9.252;2024-03-22T00:55:29;7.60;90.70
70734;DHT22;58320;48.804;9.252;2024-03-22T00:57:55;7.50;90.80
70734;DHT22;58320;48.804;9.252;2024-03-22T01:00:20;7.50;90.80
70734;DHT22;58320;48.804;9.252;2024-03-22T01:02:46;7.50;91.20
70734;DHT22;58320;48.804;9.252;2024-03-22T01:05:12;7.40;91.30
70734;DHT22;58320;48.804;9.252;2024-03-22T01:07:37;7.40;91.30
70734;DHT22;58320;48.804;9.252;2024-03-22T01:10:04;7.40;91.30
70734;DHT22;58320;48.804;9.252;2024-03-22T01:12:30;7.40;91.30
70734;DHT22;58320;48.804;9.252;2024-03-22T01:14:56;7.30;91.60
70734;DHT22;58320;48.804;9.252;2024-03-22T01:17:22;7.30;92.10
70734;DHT22;58320;48.804;9.252;2024-03-22T01:19:48;7.30;92.00
70734;DHT22;58320;48.804;9.252;2024-03-22T01:22:14;7.20;92.10
70734;DHT22;58320;48.804;9.252;2024-03-22T01:24:39;7.20;92.30
70734;DHT22;58320;48.804;9.252;2024-03-22T01:27:05;7.20;92.50
70734;DHT22;58320;48.804;9.252;2024-03-22T01:29:31;7.10;92.50
70734;DHT22;58320;48.804;9.252;2024-03-22T01:31:58;7.10;92.40
70734;DHT22;58320;48.804;9.252;2024-03-22T01:34:24;7.00;92.40
70734;DHT22;58320;48.804;9.252;2024-03-22T01:36:51;7.00;92.70
70734;DHT22;58320;48.804;9.252;2024-03-22T01:39:17;6.90;92.70
70734;DHT22;58320;48.804;9.252;2024-03-22T01:41:49;6.90;92.90
70734;DHT22;58320;48.804;9.252;2024-03-22T01:44:15;6.90;93.10
70734;DHT22;58320;48.804;9.252;2024-03-22T01:46:42;6.80;93.50
70734;DHT22;58320;48.804;9.252;2024-03-22T01:49:12;6.80;94.20
70734;DHT22;58320;48.804;9.252;2024-03-22T01:51:40;6.80;94.00
70734;DHT22;58320;48.804;9.252;2024-03-22T01:54:08;6.80;93.40
70734;DHT22;58320;48.804;9.252;2024-03-22T01:56:38;6.70;92.50
70734;DHT22;58320;48.804;9.252;2024-03-22T01:59:05;6.70;92.60
70734;DHT22;58320;48.804;9.252;2024-03-22T02:01:32;6.60;92.80
70734;DHT22;58320;48.804;9.252;2024-03-22T02:03:58;6.50;92.90
70734;DHT22;58320;48.804;9.252;2024-03-22T02:06:23;6.50;93.00
70734;DHT22;58320;48.804;9.252;2024-03-22T02:08:49;6.50;93.30
70734;DHT22;58320;48.804;9.252;2024-03-22T02:11:15;6.50;93.10
70734;DHT22;58320;48.804;9.252;2024-03-22T02:13:41;6.50;93.10
70734;DHT22;58320;48.804;9.252;2024-03-22T02:16:08;6.50;93.10
70734;DHT22;58320;48.804;9.252;2024-03-22T02:18:34;6.50;93.10
70734;DHT22;58320;48.804;9.252;2024-03-22T02:21:00;6.40;93.10
70734;DHT22;58320;48.804;9.252;2024-03-22T02:23:32;6.40;93.40
70734;DHT22;58320;48.804;9.252;2024-03-22T02:25:59;6.40;93.70
70734;DHT22;58320;48.804;9.252;2024-03-22T02:28:26;6.40;93.90
70734;DHT22;58320;48.804;9.252;2024-03-22T02:30:51;6.50;95.20
70734;DHT22;58320;48.804;9.252;2024-03-22T02:33:17;6.50;95.60
70734;DHT22;58320;48.804;9.252;2024-03-22T02:35:43;6.60;95.80
70734;DHT22;58320;48.804;9.252;2024-03-22T02:38:11;6.60;95.10
70734;DHT22;58320;48.804;9.252;2024-03-22T02:40:37;6.60;94.80
70734;DHT22;58320;48.804;9.252;2024-03-22T02:43:03;6.70;95.90
70734;DHT22;58320;48.804;9.252;2024-03-22T02:45:30;6.80;95.80
70734;DHT22;58320;48.804;9.252;2024-03-22T02:47:56;6.70;94.90
70734;DHT22;58320;48.804;9.252;2024-03-22T02:50:22;6.70;94.60
70734;DHT22;58320;48.804;9.252;2024-03-22T02:52:50;6.70;94.80
70734;DHT22;58320;48.804;9.252;2024-03-22T02:55:16;6.70;94.80
70734;DHT22;58320;48.804;9.252;2024-03-22T02:57:42;6.60;94.90
70734;DHT22;58320;48.804;9.252;2024-03-22T03:00:08;6.70;94.90
70734;DHT22;58320;48.804;9.252;2024-03-22T03:02:35;6.70;95.10
70734;DHT22;58320;48.804;9.252;2024-03-22T03:05:01;6.80;95.60
70734;DHT22;58320;48.804;9.252;2024-03-22T03:07:27;6.90;94.70
70734;DHT22;58320;48.804;9.252;2024-03-22T03:09:55;6.90;94.50
70734;DHT22;58320;48.804;9.252;2024-03-22T03:12:21;6.90;94.00
70734;DHT22;58320;48.804;9.252;2024-03-22T03:14:46;6.90;94.00
70734;DHT22;58320;48.804;9.252;2024-03-22T03:17:12;6.90;93.90
70734;DHT22;58320;48.804;9.252;2024-03-22T03:19:38;6.90;94.00
70734;DHT22;58320;48.804;9.252;2024-03-22T03:22:04;7.00;93.90
70734;DHT22;58320;48.804;9.252;2024-03-22T03:24:30;7.00;93.60
70734;DHT22;58320;48.804;9.252;2024-03-22T03:26:55;7.00;93.40
70734;DHT22;58320;48.804;9.252;2024-03-22T03:29:21;7.00;92.90
70734;DHT22;58320;48.804;9.252;2024-03-22T03:31:47;7.00;92.90
70734;DHT22;58320;48.804;9.252;2024-03-22T03:34:14;7.00;92.80
70734;DHT22;58320;48.804;9.252;2024-03-22T03:36:40;7.00;92.70
70734;DHT22;58320;48.804;9.252;2024-03-22T03:39:05;7.00;93.20
70734;DHT22;58320;48.804;9.252;2024-03-22T03:41:31;7.00;93.00
70734;DHT22;58320;48.804;9.252;2024-03-22T03:43:57;6.90;93.20
70734;DHT22;58320;48.804;9.252;2024-03-22T03:46:22;7.00;93.30
70734;DHT22;58320;48.804;9.252;2024-03-22T03:48:48;7.10;93.00
70734;DHT22;58320;48.804;9.252;2024-03-22T03:51:14;7.10;92.70
70734;DHT22;58320;48.804;9.252;2024-03-22T03:53:39;7.10;92.90
70734;DHT22;58320;48.804;9.252;2024-03-22T03:56:05;7.20;92.50
70734;DHT22;58320;48.804;9.252;2024-03-22T03:58:31;7.10;92.20
